Time;durP1;ratioP1;P1;durP2;ratioP2;P2;SDS_P1;SDS_P2;PMS_P1;PMS_P2;Temp;Humidity;BMP_temperature;BMP_pressure;BME280_temperature;BME280_humidity;BME280_pressure;Samples;Min_cycle;Max_cycle;Signal;HPM_P1;HPM_P2
2022/03/11 00:01:07;;;;;;;18.23;9.90;;;5.40;86.50;;;;;;4991014;28;20052;-87
2022/03/11 00:03:33;;;;;;;16.73;10.18;;;5.30;86.80;;;;;;5022982;28;20061;-86
2022/03/11 00:05:59;;;;;;;18.13;10.63;;;5.30;87.50;;;;;;5001225;28;20399;-87
2022/03/11 00:08:25;;;;;;;17.67;10.95;;;5.30;87.40;;;;;;5003876;28;20053;-85
2022/03/11 00:10:50;;;;;;;16.65;10.45;;;5.20;86.80;;;;;;5026425;28;20486;-85
2022/03/11 00:13:16;;;;;;;18.75;9.93;;;5.20;88.30;;;;;;5005286;28;20044;-86
2022/03/11 00:15:42;;;;;;;19.92;10.95;;;5.20;87.60;;;;;;5020445;28;20131;-86
2022/03/11 00:18:08;;;;;;;17.63;10.40;;;5.10;88.40;;;;;;5028943;28;20179;-87
2022/03/11 00:20:34;;;;;;;16.67;10.23;;;5.10;88.30;;;;;;5031823;28;20061;-87
2022/03/11 00:23:00;;;;;;;18.15;9.60;;;5.10;88.30;;;;;;5028515;28;20048;-86
2022/03/11 00:25:26;;;;;;;20.60;10.90;;;5.10;88.60;;;;;;5011218;28;20046;-86
2022/03/11 00:27:51;;;;;;;16.60;9.07;;;5.10;88.50;;;;;;4977753;28;20092;-86
2022/03/11 00:30:17;;;;;;;16.63;9.50;;;5.10;88.80;;;;;;5010496;28;20072;-86
2022/03/11 00:32:43;;;;;;;17.58;9.60;;;5.10;87.60;;;;;;5027127;28;20050;-87
2022/03/11 00:35:10;;;;;;;16.88;9.98;;;5.10;87.90;;;;;;4987992;28;20091;-86
2022/03/11 00:37:37;;;;;;;15.90;9.70;;;5.00;88.10;;;;;;5026560;28;20042;-86
2022/03/11 00:40:04;;;;;;;16.63;9.68;;;5.00;89.20;;;;;;5010607;28;20045;-86
2022/03/11 00:42:29;;;;;;;18.02;9.43;;;5.10;88.70;;;;;;5009744;28;20339;-88
2022/03/11 00:44:55;;;;;;;16.13;8.18;;;5.10;88.20;;;;;;5010345;28;20313;-87
2022/03/11 00:47:20;;;;;;;15.13;8.73;;;5.10;87.80;;;;;;5024371;28;20044;-86
2022/03/11 00:49:46;;;;;;;18.45;8.55;;;5.10;89.00;;;;;;5018295;28;20087;-88
2022/03/11 00:52:11;;;;;;;15.02;8.85;;;5.00;88.20;;;;;;5011846;28;20048;-87
2022/03/11 00:54:37;;;;;;;16.35;9.88;;;5.00;89.20;;;;;;4991762;28;20033;-86
2022/03/11 00:57:03;;;;;;;16.23;8.80;;;5.00;89.10;;;;;;5024680;28;20038;-88
2022/03/11 00:59:28;;;;;;;18.02;9.73;;;5.00;90.10;;;;;;5025565;28;20124;-88
2022/03/11 01:01:54;;;;;;;14.90;8.77;;;5.00;91.50;;;;;;5006045;28;20525;-86
2022/03/11 01:04:19;;;;;;;16.45;8.68;;;5.00;90.10;;;;;;4987048;28;20080;-87
2022/03/11 01:06:45;;;;;;;15.82;8.50;;;4.90;90.10;;;;;;4996756;28;20041;-87
2022/03/11 01:09:11;;;;;;;14.10;7.90;;;4.90;90.60;;;;;;4986879;28;20459;-88
2022/03/11 01:11:36;;;;;;;14.40;8.73;;;4.90;91.20;;;;;;5023084;28;20049;-87
2022/03/11 01:14:03;;;;;;;15.55;8.18;;;4.90;90.90;;;;;;5027585;28;20041;-86
2022/03/11 01:16:29;;;;;;;14.40;8.63;;;4.90;90.90;;;;;;4989256;28;20135;-87
2022/03/11 01:18:54;;;;;;;14.70;8.85;;;4.80;91.10;;;;;;4979795;28;20523;-86
2022/03/11 01:21:20;;;;;;;12.88;8.23;;;4.80;92.10;;;;;;5005728;28;20046;-89
2022/03/11 01:23:45;;;;;;;16.08;9.20;;;4.90;92.70;;;;;;5019899;28;20139;-87
2022/03/11 01:26:12;;;;;;;16.17;8.68;;;4.80;92.10;;;;;;5019017;28;20046;-86
2022/03/11 01:28:41;;;;;;;15.07;8.40;;;4.80;92.60;;;;;;5027416;28;20405;-86
2022/03/11 01:31:07;;;;;;;16.73;8.68;;;4.80;92.50;;;;;;4981745;28;20034;-86
2022/03/11 01:33:33;;;;;;;14.45;7.85;;;4.80;92.50;;;;;;5007437;28;20258;-88
2022/03/11 01:35:59;;;;;;;14.95;8.30;;;4.80;92.40;;;;;;4994568;28;20099;-86
2022/03/11 01:38:24;;;;;;;15.50;8.90;;;4.70;93.30;;;;;;4978866;28;20072;-86
2022/03/11 01:40:50;;;;;;;17.70;8.95;;;4.70;94.00;;;;;;5027563;28;20053;-86
2022/03/11 01:43:17;;;;;;;13.70;7.72;;;4.70;94.20;;;;;;5014915;28;20046;-86
2022/03/11 01:45:44;;;;;;;15.38;8.13;;;4.60;94.90;;;;;;5008972;28;20038;-87
2022/03/11 01:48:10;;;;;;;14.80;8.10;;;4.60;94.50;;;;;;4982136;28;20044;-88
2022/03/11 01:50:40;;;;;;;17.75;8.70;;;4.60;96.60;;;;;;5010213;28;20132;-88
2022/03/11 01:53:11;;;;;;;15.02;8.57;;;4.60;96.00;;;;;;5022033;28;20049;-86
2022/03/11 01:55:37;;;;;;;15.10;8.45;;;4.50;96.30;;;;;;5003203;28;20049;-89
2022/03/11 01:58:04;;;;;;;15.73;9.00;;;4.50;97.00;;;;;;5025299;28;20486;-87
2022/03/11 02:00:31;;;;;;;16.10;8.00;;;4.50;96.50;;;;;;5006116;28;20038;-86
2022/03/11 02:02:57;;;;;;;17.33;8.23;;;4.50;96.10;;;;;;4996515;28;20073;-86
2022/03/11 02:05:23;;;;;;;15.63;8.77;;;4.50;95.70;;;;;;5009964;28;20084;-87
2022/03/11 02:07:49;;;;;;;15.65;9.10;;;4.50;98.50;;;;;;4981210;28;20476;-87
2022/03/11 02:10:15;;;;;;;14.70;8.95;;;4.40;96.90;;;;;;5009658;28;20099;-86
2022/03/11 02:12:42;;;;;;;16.98;9.20;;;4.40;98.00;;;;;;5008947;28;20375;-86
2022/03/11 02:15:09;;;;;;;18.92;9.98;;;4.40;98.50;;;;;;4993584;28;20490;-89
2022/03/11 02:17:35;;;;;;;15.55;8.85;;;4.40;99.90;;;;;;4984481;28;20052;-88
2022/03/11 02:20:00;;;;;;;17.77;9.85;;;4.40;99.60;;;;;;4993869;28;20522;-87
2022/03/11 02:22:31;;;;;;;14.75;9.27;;;4.30;98.10;;;;;;5008023;28;20055;-87
2022/03/11 02:24:56;;;;;;;16.05;9.68;;;4.40;99.90;;;;;;4978782;28;20100;-86
2022/03/11 02:27:23;;;;;;;16.13;9.48;;;4.40;99.90;;;;;;4989925;28;20560;-87
2022/03/11 02:29:49;;;;;;;17.50;9.60;;;4.40;99.90;;;;;;5030305;28;20037;-88
2022/03/11 02:32:14;;;;;;;16.77;9.70;;;4.40;99.90;;;;;;5011543;28;20083;-87
2022/03/11 02:34:40;;;;;;;16.60;9.32;;;4.40;99.90;;;;;;4996407;28;20115;-86
2022/03/11 02:37:09;;;;;;;22.55;10.70;;;4.30;99.90;;;;;;4996663;28;20367;-88
2022/03/11 02:39:34;;;;;;;18.63;9.98;;;4.30;99.90;;;;;;5011654;28;20088;-87
2022/03/11 02:42:03;;;;;;;15.15;8.68;;;4.30;99.90;;;;;;5012191;28;20099;-86
2022/03/11 02:44:31;;;;;;;17.58;10.10;;;4.30;99.90;;;;;;5010397;28;20042;-87
2022/03/11 02:46:59;;;;;;;18.83;10.32;;;4.20;99.90;;;;;;5027341;28;20050;-87
2022/03/11 02:49:28;;;;;;;17.67;9.88;;;4.20;99.90;;;;;;5025995;28;20037;-87
2022/03/11 02:51:56;;;;;;;18.08;10.05;;;4.20;99.90;;;;;;5033818;28;20874;-86
2022/03/11 02:54:25;;;;;;;15.20;10.27;;;4.10;99.90;;;;;;5018250;28;20041;-86
2022/03/11 02:56:51;;;;;;;15.95;9.55;;;4.10;99.90;;;;;;5022495;28;20053;-86
2022/03/11 02:59:17;;;;;;;18.48;10.27;;;4.10;99.90;;;;;;5030899;28;20482;-87
2022/03/11 03:01:42;;;;;;;20.08;10.57;;;4.20;99.90;;;;;;5010690;28;20460;-86
2022/03/11 03:04:08;;;;;;;18.02;10.63;;;4.10;99.90;;;;;;5029421;28;20585;-87
2022/03/11 03:06:33;;;;;;;18.80;10.90;;;4.10;99.90;;;;;;5027602;28;20571;-85
2022/03/11 03:08:59;;;;;;;19.92;10.63;;;4.10;99.90;;;;;;5029878;28;20038;-87
2022/03/11 03:11:24;;;;;;;17.92;10.30;;;4.10;99.90;;;;;;4996832;28;20073;-88
2022/03/11 03:13:50;;;;;;;18.30;10.65;;;4.00;99.90;;;;;;5028362;28;20045;-88
2022/03/11 03:16:16;;;;;;;19.50;10.68;;;4.00;99.90;;;;;;5011072;28;20049;-87
2022/03/11 03:18:41;;;;;;;18.92;10.32;;;4.10;99.90;;;;;;5011023;28;20124;-88
2022/03/11 03:21:07;;;;;;;19.80;10.02;;;4.00;99.90;;;;;;4994521;28;20404;-87
2022/03/11 03:23:32;;;;;;;17.73;11.10;;;4.00;99.90;;;;;;5034281;28;20358;-87
2022/03/11 03:25:58;;;;;;;20.05;11.77;;;4.00;99.90;;;;;;5032045;28;20043;-88
2022/03/11 03:28:23;;;;;;;18.98;11.70;;;4.00;99.90;;;;;;5032207;28;20052;-88
2022/03/11 03:30:49;;;;;;;19.02;11.70;;;4.00;99.90;;;;;;5022823;28;20096;-86
2022/03/11 03:33:14;;;;;;;22.73;11.32;;;4.00;99.90;;;;;;5006891;28;20121;-87
2022/03/11 03:35:40;;;;;;;21.13;11.75;;;3.90;99.90;;;;;;4977611;28;20471;-88
2022/03/11 03:38:06;;;;;;;20.17;11.30;;;3.90;99.90;;;;;;5010232;28;20410;-87
2022/03/11 03:40:31;;;;;;;24.05;11.98;;;3.90;99.90;;;;;;5028727;28;20437;-86
2022/03/11 03:42:57;;;;;;;17.15;10.75;;;3.90;99.90;;;;;;5005244;28;20037;-87
2022/03/11 03:45:23;;;;;;;22.52;12.40;;;3.90;99.90;;;;;;5018606;28;20045;-87
2022/03/11 03:47:48;;;;;;;21.35;12.55;;;3.80;99.90;;;;;;5019205;28;20046;-87
2022/03/11 03:50:14;;;;;;;19.30;11.85;;;3.80;99.90;;;;;;5009074;28;20469;-87
2022/03/11 03:52:40;;;;;;;20.27;11.65;;;3.80;99.90;;;;;;5012197;28;20049;-84
2022/03/11 03:55:07;;;;;;;22.05;12.93;;;3.80;99.90;;;;;;5014039;28;20038;-88
2022/03/11 03:57:32;;;;;;;22.15;12.90;;;3.80;99.90;;;;;;5015090;28;20407;-87
2022/03/11 03:59:58;;;;;;;21.52;12.45;;;3.80;99.90;;;;;;5013113;28;20033;-87
2022/03/11 04:02:23;;;;;;;20.13;12.13;;;3.80;99.90;;;;;;5004360;28;20528;-89
2022/03/11 04:04:49;;;;;;;22.15;12.63;;;3.70;99.90;;;;;;5002552;28;20037;-89
2022/03/11 04:07:15;;;;;;;22.42;12.23;;;3.70;99.90;;;;;;5007795;28;20394;-88
2022/03/11 04:09:41;;;;;;;21.92;12.60;;;3.70;99.90;;;;;;5014166;28;20139;-88
2022/03/11 04:12:07;;;;;;;22.65;12.85;;;3.70;99.90;;;;;;4989050;28;20541;-87
2022/03/11 04:14:32;;;;;;;20.23;12.48;;;3.60;99.90;;;;;;4984945;28;20474;-89
2022/03/11 04:16:58;;;;;;;20.98;11.82;;;3.60;99.90;;;;;;4991645;28;20052;-87
2022/03/11 04:19:24;;;;;;;25.35;13.70;;;3.60;99.90;;;;;;5022726;28;20045;-87
2022/03/11 04:21:49;;;;;;;20.10;12.45;;;3.60;99.90;;;;;;5003166;28;20041;-89
2022/03/11 04:24:15;;;;;;;23.25;13.70;;;3.50;99.90;;;;;;5005288;28;20040;-90
2022/03/11 04:26:43;;;;;;;25.80;14.50;;;3.50;99.90;;;;;;5028353;28;20048;-88
2022/03/11 04:29:09;;;;;;;23.63;13.18;;;3.50;99.90;;;;;;5010717;28;20540;-89
2022/03/11 04:31:35;;;;;;;25.48;14.27;;;3.50;99.90;;;;;;5009348;28;20049;-86
2022/03/11 04:34:02;;;;;;;26.40;14.50;;;3.40;99.90;;;;;;5005575;28;20622;-87
2022/03/11 04:36:29;;;;;;;22.95;13.15;;;3.50;99.90;;;;;;5012146;28;20045;-88
2022/03/11 04:38:55;;;;;;;25.08;14.45;;;3.40;99.90;;;;;;4993268;28;20144;-88
2022/03/11 04:41:21;;;;;;;24.27;14.75;;;3.40;99.90;;;;;;5010729;28;20087;-89
2022/03/11 04:43:47;;;;;;;26.70;14.43;;;3.50;99.90;;;;;;5010436;28;20471;-88
2022/03/11 04:46:12;;;;;;;23.65;13.90;;;3.50;99.90;;;;;;5023983;28;20062;-89
2022/03/11 04:48:40;;;;;;;24.70;14.35;;;3.40;99.90;;;;;;5007127;28;20115;-87
2022/03/11 04:51:05;;;;;;;27.33;15.65;;;3.40;99.90;;;;;;5026756;28;20045;-88
2022/03/11 04:53:31;;;;;;;25.63;15.13;;;3.40;99.90;;;;;;5028999;28;20415;-87
2022/03/11 04:55:56;;;;;;;28.95;16.08;;;3.40;99.90;;;;;;5004309;28;20048;-87
2022/03/11 04:58:22;;;;;;;23.75;13.45;;;3.30;99.90;;;;;;5011325;28;20471;-87
2022/03/11 05:00:47;;;;;;;29.38;14.18;;;3.30;99.90;;;;;;4998901;28;20049;-89
2022/03/11 05:03:13;;;;;;;26.52;14.98;;;3.30;99.90;;;;;;5011946;28;20100;-88
2022/03/11 05:05:39;;;;;;;26.92;14.80;;;3.20;99.90;;;;;;4992487;28;20049;-87
2022/03/11 05:08:05;;;;;;;26.42;16.30;;;3.20;99.90;;;;;;5008769;28;20048;-88
2022/03/11 05:10:30;;;;;;;26.63;14.55;;;3.20;99.90;;;;;;4991456;28;20048;-88
2022/03/11 05:12:56;;;;;;;26.58;15.30;;;3.10;99.90;;;;;;4992856;28;20053;-87
2022/03/11 05:15:24;;;;;;;26.02;14.50;;;3.10;99.90;;;;;;5023144;28;20394;-87
2022/03/11 05:17:50;;;;;;;28.17;15.27;;;3.10;99.90;;;;;;4999816;28;20132;-89
2022/03/11 05:20:16;;;;;;;25.17;14.93;;;3.10;99.90;;;;;;5030063;28;20073;-86
2022/03/11 05:22:42;;;;;;;28.40;15.93;;;3.10;99.90;;;;;;4999113;28;20053;-86
2022/03/11 05:25:08;;;;;;;27.33;14.70;;;3.00;99.90;;;;;;5008153;28;20042;-87
2022/03/11 05:27:34;;;;;;;27.70;16.60;;;3.00;99.90;;;;;;4986717;28;20410;-87
2022/03/11 05:30:00;;;;;;;28.65;15.00;;;2.90;99.90;;;;;;4983532;28;20033;-88
2022/03/11 05:32:25;;;;;;;26.48;15.27;;;3.00;99.90;;;;;;4989020;28;20052;-87
2022/03/11 05:34:51;;;;;;;28.70;15.68;;;2.90;99.90;;;;;;5005621;28;20041;-86
2022/03/11 05:37:16;;;;;;;27.10;16.02;;;2.90;99.90;;;;;;5027660;28;20045;-86
2022/03/11 05:39:42;;;;;;;25.77;15.18;;;2.90;99.90;;;;;;5035332;28;20380;-87
2022/03/11 05:42:08;;;;;;;24.98;15.05;;;2.90;99.90;;;;;;4996727;28;20058;-88
2022/03/11 05:44:34;;;;;;;26.20;15.57;;;2.90;99.90;;;;;;5000192;28;20379;-88
2022/03/11 05:47:00;;;;;;;26.88;14.95;;;2.80;99.90;;;;;;4992881;28;20038;-88
2022/03/11 05:49:27;;;;;;;29.15;16.45;;;2.90;99.90;;;;;;5004427;28;20340;-88
2022/03/11 05:51:52;;;;;;;27.20;16.05;;;2.80;99.90;;;;;;5002229;28;20064;-88
2022/03/11 05:54:18;;;;;;;28.85;14.95;;;2.90;99.90;;;;;;5012209;28;20089;-87
2022/03/11 05:56:44;;;;;;;28.75;16.60;;;2.90;99.90;;;;;;5010149;28;20045;-88
2022/03/11 05:59:10;;;;;;;30.52;15.27;;;2.80;99.90;;;;;;4988541;28;20049;-89
2022/03/11 06:01:35;;;;;;;27.83;16.25;;;2.80;99.90;;;;;;5024641;28;20556;-88
2022/03/11 06:04:03;;;;;;;27.75;16.10;;;2.80;99.90;;;;;;5000062;28;20053;-87
2022/03/11 06:06:30;;;;;;;28.80;16.67;;;2.80;99.90;;;;;;5014413;28;20045;-89
2022/03/11 06:08:56;;;;;;;27.90;16.15;;;2.80;99.90;;;;;;5017119;28;20049;-89
2022/03/11 06:11:22;;;;;;;30.60;16.10;;;2.80;99.90;;;;;;5031927;28;20048;-87
2022/03/11 06:13:47;;;;;;;26.25;16.58;;;2.80;99.90;;;;;;5031315;28;20120;-86
2022/03/11 06:16:13;;;;;;;27.63;16.45;;;2.80;99.90;;;;;;5012430;28;20113;-88
2022/03/11 06:18:39;;;;;;;27.83;15.65;;;2.80;99.90;;;;;;5007342;28;20073;-86
2022/03/11 06:21:05;;;;;;;28.73;16.17;;;2.80;99.90;;;;;;4997508;28;20391;-88
2022/03/11 06:23:31;;;;;;;26.98;15.25;;;2.70;99.90;;;;;;5001746;28;20049;-88
2022/03/11 06:25:58;;;;;;;31.67;16.77;;;2.70;99.90;;;;;;4996666;28;20049;-88
2022/03/11 06:28:23;;;;;;;28.02;17.15;;;2.70;99.90;;;;;;5015785;28;20056;-87
2022/03/11 06:30:49;;;;;;;27.50;15.93;;;2.80;99.90;;;;;;5031720;28;20033;-87
2022/03/11 06:33:15;;;;;;;26.95;15.80;;;2.80;99.90;;;;;;5017936;28;20240;-86
2022/03/11 06:35:41;;;;;;;26.67;15.60;;;2.80;99.90;;;;;;5007556;28;20045;-87
2022/03/11 06:38:07;;;;;;;27.00;15.90;;;2.80;99.90;;;;;;5016227;28;20046;-86
2022/03/11 06:40:33;;;;;;;28.17;16.48;;;2.80;99.90;;;;;;5011690;28;20041;-86
2022/03/11 06:42:58;;;;;;;27.33;15.90;;;2.90;99.90;;;;;;5010062;28;20042;-86
2022/03/11 06:45:24;;;;;;;28.63;16.40;;;2.80;99.90;;;;;;5027968;28;20046;-86
2022/03/11 06:47:50;;;;;;;28.60;16.15;;;2.90;99.90;;;;;;5009565;28;20509;-86
2022/03/11 06:50:18;;;;;;;26.60;15.43;;;2.90;99.90;;;;;;5012934;28;20128;-85
2022/03/11 06:52:44;;;;;;;33.10;17.90;;;2.90;99.90;;;;;;5027859;28;21258;-84
2022/03/11 06:55:10;;;;;;;27.15;14.85;;;3.00;99.90;;;;;;4986397;28;20034;-86
2022/03/11 06:57:35;;;;;;;25.55;15.40;;;3.00;99.90;;;;;;5009340;28;20087;-86
2022/03/11 07:00:05;;;;;;;29.58;16.38;;;3.00;99.90;;;;;;4986917;28;20038;-86
2022/03/11 07:02:31;;;;;;;26.25;15.23;;;3.10;99.90;;;;;;5011210;28;20128;-85
2022/03/11 07:04:57;;;;;;;30.95;16.30;;;3.10;99.90;;;;;;4995142;28;20140;-86
2022/03/11 07:07:22;;;;;;;29.38;15.57;;;3.10;99.90;;;;;;4995620;28;20084;-85
2022/03/11 07:09:48;;;;;;;29.10;16.00;;;3.20;99.90;;;;;;4997183;28;20665;-88
2022/03/11 07:12:14;;;;;;;30.85;16.00;;;3.30;99.90;;;;;;5013889;28;20053;-87
2022/03/11 07:14:41;;;;;;;27.65;15.10;;;3.30;99.90;;;;;;4994104;28;20042;-84
2022/03/11 07:17:07;;;;;;;26.13;15.38;;;3.30;99.90;;;;;;4984804;28;20045;-87
2022/03/11 07:19:34;;;;;;;25.83;15.05;;;3.30;99.90;;;;;;5028121;28;20034;-85
2022/03/11 07:22:01;;;;;;;26.80;16.48;;;3.40;99.90;;;;;;5023358;28;20124;-84
2022/03/11 07:24:27;;;;;;;30.98;16.88;;;3.50;99.90;;;;;;5027292;28;20038;-84
2022/03/11 07:26:52;;;;;;;26.27;15.70;;;3.50;99.90;;;;;;5025044;28;20483;-85
2022/03/11 07:29:18;;;;;;;28.17;16.33;;;3.60;99.90;;;;;;5020135;28;20042;-86
2022/03/11 07:31:45;;;;;;;25.85;14.85;;;3.70;99.90;;;;;;5016436;28;20114;-84
2022/03/11 07:34:11;;;;;;;29.83;16.77;;;3.70;99.90;;;;;;5026105;28;20171;-86
2022/03/11 07:36:36;;;;;;;28.63;16.25;;;3.80;99.90;;;;;;5011358;28;20120;-84
2022/03/11 07:39:03;;;;;;;29.73;16.60;;;3.80;99.90;;;;;;4990011;28;20041;-89
2022/03/11 07:41:29;;;;;;;29.02;16.23;;;3.90;99.90;;;;;;5012623;28;20132;-87
2022/03/11 07:43:55;;;;;;;25.88;14.68;;;3.90;99.90;;;;;;5007105;28;20037;-84
2022/03/11 07:46:23;;;;;;;26.60;15.63;;;4.00;99.90;;;;;;5004669;28;20048;-85
2022/03/11 07:48:51;;;;;;;29.88;16.13;;;4.10;99.90;;;;;;4994547;28;20422;-85
2022/03/11 07:51:18;;;;;;;28.63;16.77;;;4.20;99.90;;;;;;5011873;28;20037;-85
2022/03/11 07:53:44;;;;;;;26.17;15.98;;;4.30;99.90;;;;;;5034427;28;20045;-89
2022/03/11 07:56:11;;;;;;;29.08;16.85;;;4.30;99.90;;;;;;5031800;28;20110;-87
2022/03/11 07:58:39;;;;;;;27.55;16.50;;;4.40;99.90;;;;;;5019072;28;20088;-86
2022/03/11 08:01:07;;;;;;;26.83;15.80;;;4.50;99.90;;;;;;4990452;28;20092;-89
2022/03/11 08:03:33;;;;;;;27.75;15.38;;;4.60;99.90;;;;;;5003324;28;20053;-87
2022/03/11 08:06:00;;;;;;;27.38;17.15;;;4.60;99.90;;;;;;5004384;28;20052;-87
2022/03/11 08:08:26;;;;;;;27.52;17.23;;;4.70;99.90;;;;;;5026485;28;20133;-89
2022/03/11 08:10:54;;;;;;;28.10;15.27;;;4.80;99.90;;;;;;5007342;28;20132;-90
2022/03/11 08:13:22;;;;;;;26.33;16.27;;;4.80;99.90;;;;;;5006057;28;20045;-89
2022/03/11 08:15:48;;;;;;;26.27;16.27;;;4.90;99.90;;;;;;5007424;28;20040;-88
2022/03/11 08:18:14;;;;;;;27.75;15.80;;;5.00;99.90;;;;;;4989983;28;20053;-87
2022/03/11 08:20:40;;;;;;;28.17;16.15;;;5.00;99.90;;;;;;5008899;28;20048;-88
2022/03/11 08:23:07;;;;;;;25.80;16.92;;;5.10;99.90;;;;;;5028475;28;20045;-87
2022/03/11 08:25:36;;;;;;;25.83;16.77;;;5.20;99.90;;;;;;5016601;28;20053;-87
2022/03/11 08:28:04;;;;;;;25.35;16.35;;;5.20;99.90;;;;;;5007501;28;20042;-90
2022/03/11 08:30:31;;;;;;;27.35;16.38;;;5.30;99.90;;;;;;4991591;28;20402;-88
2022/03/11 08:32:57;;;;;;;28.50;18.77;;;5.40;99.90;;;;;;4980363;28;20060;-89
2022/03/11 08:35:24;;;;;;;27.35;16.13;;;5.50;99.90;;;;;;5026735;28;20605;-87
2022/03/11 08:37:49;;;;;;;25.38;16.83;;;5.50;99.90;;;;;;5008558;28;20054;-88
2022/03/11 08:40:23;;;;;;;28.50;17.67;;;5.60;99.90;;;;;;4992935;28;20049;-88
2022/03/11 08:42:52;;;;;;;28.80;18.02;;;5.80;99.90;;;;;;4988910;28;20100;-90
2022/03/11 08:45:21;;;;;;;26.67;17.88;;;5.70;98.70;;;;;;5030048;28;20491;-89
2022/03/11 08:47:47;;;;;;;29.15;17.98;;;5.80;99.00;;;;;;4994133;28;20087;-89
2022/03/11 08:50:13;;;;;;;29.27;17.33;;;5.90;98.70;;;;;;4997590;28;20056;-90
2022/03/11 08:52:40;;;;;;;28.13;18.13;;;6.00;98.20;;;;;;5011206;28;20394;-89
2022/03/11 08:55:06;;;;;;;26.88;17.17;;;6.00;97.20;;;;;;4995294;28;20084;-89
2022/03/11 08:57:31;;;;;;;27.10;17.27;;;6.10;97.50;;;;;;5004067;28;20055;-89
2022/03/11 08:59:57;;;;;;;28.70;16.90;;;6.20;97.50;;;;;;5013383;28;20042;-89
2022/03/11 09:02:23;;;;;;;27.77;18.27;;;6.30;96.80;;;;;;5010037;28;20053;-89
2022/03/11 09:04:49;;;;;;;27.17;18.25;;;6.40;95.90;;;;;;5007322;28;20057;-89
2022/03/11 09:07:15;;;;;;;27.75;18.55;;;6.50;93.80;;;;;;5012735;28;20068;-89
2022/03/11 09:09:41;;;;;;;26.50;20.17;;;6.60;91.70;;;;;;5010966;28;20049;-88
2022/03/11 09:12:07;;;;;;;27.05;21.08;;;6.70;90.00;;;;;;5024269;28;20042;-89
2022/03/11 09:14:33;;;;;;;27.83;18.23;;;6.80;89.70;;;;;;4998166;28;20046;-88
2022/03/11 09:17:00;;;;;;;27.25;17.40;;;6.90;90.00;;;;;;5009601;28;20117;-88
2022/03/11 09:19:28;;;;;;;26.35;17.65;;;7.00;81.60;;;;;;5002346;28;20041;-89
2022/03/11 09:21:53;;;;;;;26.80;17.73;;;7.00;79.20;;;;;;5002418;28;20057;-88
2022/03/11 09:24:19;;;;;;;25.23;17.35;;;7.10;85.30;;;;;;5009524;28;20057;-88
2022/03/11 09:26:45;;;;;;;25.75;20.73;;;7.10;84.80;;;;;;5029809;28;20048;-89
2022/03/11 09:29:11;;;;;;;26.20;18.75;;;7.20;81.10;;;;;;5007616;28;20046;-90
2022/03/11 09:31:37;;;;;;;25.50;17.42;;;7.30;81.20;;;;;;4999694;28;20434;-90
2022/03/11 09:34:03;;;;;;;26.35;17.92;;;7.40;78.00;;;;;;5014162;28;20034;-89
2022/03/11 09:36:28;;;;;;;27.92;19.13;;;7.40;79.10;;;;;;5024794;28;20084;-89
2022/03/11 09:38:54;;;;;;;26.75;19.42;;;7.50;80.40;;;;;;5023647;28;20041;-90
2022/03/11 09:41:20;;;;;;;27.88;18.33;;;7.60;80.60;;;;;;5014612;28;20056;-90
2022/03/11 09:43:46;;;;;;;25.67;19.40;;;7.70;79.20;;;;;;4997666;28;20124;-90
2022/03/11 09:46:13;;;;;;;25.38;18.70;;;7.80;78.80;;;;;;4996449;28;20551;-91
2022/03/11 09:48:41;;;;;;;26.00;18.60;;;7.90;78.20;;;;;;5003653;28;20049;-89
2022/03/11 09:51:10;;;;;;;26.42;19.65;;;7.90;75.30;;;;;;5016209;28;20099;-90
2022/03/11 09:53:35;;;;;;;27.40;19.55;;;8.00;73.70;;;;;;4985996;28;20080;-90
2022/03/11 09:56:01;;;;;;;26.75;19.98;;;8.10;75.10;;;;;;5009156;28;20073;-89
2022/03/11 09:58:27;;;;;;;24.63;19.60;;;8.10;74.80;;;;;;4996318;28;20061;-91
2022/03/11 10:00:52;;;;;;;26.85;20.73;;;8.20;72.40;;;;;;5018555;28;20051;-91
2022/03/11 10:03:18;;;;;;;24.88;18.90;;;8.20;71.70;;;;;;5014988;28;20053;-89
2022/03/11 10:05:54;;;;;;;25.92;19.92;;;8.30;71.60;;;;;;5028014;28;20367;-90
2022/03/11 10:08:40;;;;;;;27.63;20.52;;;8.40;71.30;;;;;;5026315;28;20057;-91
2022/03/11 10:11:27;;;;;;;25.27;19.00;;;8.50;69.90;;;;;;4986793;28;20045;-91
2022/03/11 10:14:13;;;;;;;25.65;20.63;;;8.60;68.80;;;;;;5030292;28;20608;-89
2022/03/11 10:16:41;;;;;;;27.08;20.95;;;8.60;70.30;;;;;;5022153;28;20057;-90
2022/03/11 10:19:10;;;;;;;25.55;20.08;;;8.70;67.90;;;;;;5047203;28;20030;-89
2022/03/11 10:21:38;;;;;;;25.83;20.10;;;8.70;67.60;;;;;;5011304;28;20191;-90
2022/03/11 10:24:14;;;;;;;25.67;20.00;;;8.70;67.60;;;;;;5020057;28;20033;-89
2022/03/11 10:26:41;;;;;;;26.27;19.77;;;8.80;66.20;;;;;;5018373;28;20042;-91
2022/03/11 10:29:12;;;;;;;25.33;20.70;;;8.90;67.40;;;;;;4999514;28;20068;-90
2022/03/11 10:31:40;;;;;;;25.63;21.27;;;8.90;66.40;;;;;;5030034;28;20041;-89
2022/03/11 10:34:12;;;;;;;26.10;20.88;;;9.00;66.00;;;;;;5014578;28;20092;-90
2022/03/11 10:36:47;;;;;;;24.15;20.48;;;9.10;65.90;;;;;;5014837;28;20068;-88
2022/03/11 10:39:15;;;;;;;25.88;20.27;;;9.10;64.40;;;;;;5030968;28;20529;-91
2022/03/11 10:41:40;;;;;;;25.50;19.67;;;9.20;65.00;;;;;;5012640;28;20073;-90
2022/03/11 10:44:09;;;;;;;25.50;21.00;;;9.30;64.80;;;;;;4994764;28;20460;-91
2022/03/11 10:46:35;;;;;;;27.45;22.27;;;9.30;64.20;;;;;;5012818;28;20046;-89
2022/03/11 10:49:01;;;;;;;26.30;20.92;;;9.40;64.40;;;;;;5028761;28;20046;-95
2022/03/11 10:51:36;;;;;;;25.23;20.13;;;9.50;63.30;;;;;;5006325;28;20052;-96
2022/03/11 10:54:05;;;;;;;23.92;20.65;;;9.70;62.90;;;;;;4986664;28;20056;-91
2022/03/11 10:56:36;;;;;;;24.60;19.95;;;9.60;62.50;;;;;;5015779;28;20042;-91
2022/03/11 10:59:14;;;;;;;25.42;19.55;;;9.70;63.30;;;;;;5027198;28;20120;-87
2022/03/11 11:01:41;;;;;;;25.48;21.13;;;9.70;61.80;;;;;;5024788;28;20113;-88
2022/03/11 11:04:09;;;;;;;23.45;20.13;;;9.80;62.30;;;;;;5006758;28;20058;-88
2022/03/11 11:06:36;;;;;;;24.23;20.23;;;9.90;61.80;;;;;;5002336;28;20399;-88
2022/03/11 11:09:03;;;;;;;25.45;20.13;;;10.00;61.30;;;;;;5011388;28;20049;-90
2022/03/11 11:11:30;;;;;;;22.98;19.73;;;10.00;61.50;;;;;;5017260;28;20398;-89
2022/03/11 11:13:58;;;;;;;24.55;19.25;;;10.10;61.20;;;;;;5015422;28;20040;-88
2022/03/11 11:16:28;;;;;;;22.58;18.38;;;10.20;60.90;;;;;;5009307;28;20057;-90
2022/03/11 11:18:59;;;;;;;23.63;18.17;;;10.20;59.60;;;;;;4983394;28;20046;-89
2022/03/11 11:21:26;;;;;;;20.98;17.33;;;10.30;58.40;;;;;;5034148;28;20132;-86
2022/03/11 11:23:55;;;;;;;20.98;17.50;;;10.30;58.70;;;;;;5021558;28;20048;-88
2022/03/11 11:26:23;;;;;;;22.90;18.17;;;10.40;58.70;;;;;;5020856;28;20071;-88
2022/03/11 11:28:59;;;;;;;21.98;17.80;;;10.50;58.70;;;;;;5037873;28;20050;-89
2022/03/11 11:31:25;;;;;;;23.45;17.92;;;10.50;57.70;;;;;;5006119;28;20049;-88
2022/03/11 11:33:51;;;;;;;23.42;18.60;;;10.50;57.70;;;;;;4993919;28;20120;-89
2022/03/11 11:36:40;;;;;;;22.33;17.48;;;10.60;57.50;;;;;;5018079;28;20084;-89
2022/03/11 11:39:08;;;;;;;21.25;17.60;;;10.60;55.70;;;;;;5022329;28;20046;-89
2022/03/11 11:41:35;;;;;;;22.42;17.92;;;10.70;56.90;;;;;;4999802;28;20046;-88
2022/03/11 11:44:03;;;;;;;20.33;16.90;;;10.70;56.40;;;;;;5014255;28;20125;-89
2022/03/11 11:46:34;;;;;;;21.92;16.98;;;10.80;55.20;;;;;;4998087;28;20098;-91
2022/03/11 11:49:13;;;;;;;22.25;16.88;;;10.90;54.80;;;;;;4990122;28;20425;-88
2022/03/11 11:51:39;;;;;;;20.52;17.25;;;10.90;54.30;;;;;;5027529;28;20048;-89
2022/03/11 11:54:09;;;;;;;20.92;17.20;;;10.90;54.50;;;;;;5026506;28;20038;-87
2022/03/11 11:56:36;;;;;;;22.33;17.85;;;10.90;54.20;;;;;;5041116;28;20045;-89
2022/03/11 11:59:19;;;;;;;21.02;17.23;;;11.00;54.40;;;;;;5002325;28;20045;-90
2022/03/11 12:01:44;;;;;;;24.08;17.63;;;11.10;54.30;;;;;;5029916;28;20402;-88
2022/03/11 12:04:34;;;;;;;20.02;16.50;;;11.10;54.60;;;;;;5014144;28;20045;-88
2022/03/11 12:07:02;;;;;;;23.05;18.05;;;11.20;53.20;;;;;;5020603;28;20045;-89
2022/03/11 12:12:29;;;;;;;22.35;17.52;;;11.30;53.80;;;;;;5006978;28;20087;-88
2022/03/11 12:14:58;;;;;;;21.42;17.85;;;11.40;54.20;;;;;;5009638;28;20072;-87
2022/03/11 12:17:47;;;;;;;21.67;17.88;;;11.50;54.10;;;;;;4999159;28;20050;-87
2022/03/11 12:20:31;;;;;;;22.02;17.13;;;11.50;53.50;;;;;;4998576;28;20426;-87
2022/03/11 12:23:06;;;;;;;21.95;16.80;;;11.60;52.40;;;;;;5011268;28;20119;-87
2022/03/11 12:25:50;;;;;;;22.05;17.58;;;11.60;52.80;;;;;;5015713;28;20037;-86
2022/03/11 12:28:25;;;;;;;21.75;16.83;;;11.70;52.40;;;;;;5016468;28;20046;-87
2022/03/11 12:30:50;;;;;;;20.30;16.50;;;11.80;51.70;;;;;;5016005;28;20041;-86
2022/03/11 12:33:20;;;;;;;19.38;17.00;;;11.80;52.30;;;;;;4998483;28;20059;-87
2022/03/11 12:35:48;;;;;;;20.90;16.60;;;11.90;52.40;;;;;;5027462;28;20037;-89
2022/03/11 12:38:17;;;;;;;19.20;16.50;;;12.00;52.60;;;;;;5022781;28;20124;-85
2022/03/11 12:40:44;;;;;;;20.98;16.77;;;12.10;51.50;;;;;;4980563;28;20081;-87